Mc Lemoresville, Tennessee
Current Conditions -  °F | °C
As of 4:55 PM on Thursday 23 Oct 2014 (Local Time) from KPHT Reporting Station
Clear Clear  
Wind Chill: 57°   Ceiling: Unl
Heat Index: 57°   Visibility: 10mi
Dew Point: 43°   Wind: 3mph
Humidity: 59%   Direction: 360°N
Pressure: 30.13"   Gusts: NA
Location:  35.9867°N, 88.5772°W
Report Text: KPHT 232155Z AUTO 36003KT 10SM CLR 14/06 A3013 RMK
Loading
Personal Weather Stations






























Interactive Weather Map
Tropical Storm Tracking
New forecast layout! Learn more

10-Day Weather Forecast

Advertisements
Track Severe Weather on mobile